createdAt,value
2023-01-18T00:03:14.527Z,89.19
2023-01-18T00:07:16.625Z,88.68
2023-01-18T00:11:19.024Z,88.08
2023-01-18T00:15:21.201Z,87.89
2023-01-18T00:19:23.347Z,89.14
2023-01-18T00:23:25.424Z,89.67
2023-01-18T00:27:27.533Z,90.15
2023-01-18T00:31:30.675Z,89.97
2023-01-18T00:35:32.780Z,89.10
2023-01-18T00:39:34.869Z,89.33
2023-01-18T00:43:40.067Z,88.91
2023-01-18T00:47:42.385Z,89.39
2023-01-18T00:51:44.518Z,89.24
2023-01-18T00:55:47.513Z,89.84
2023-01-18T00:59:49.701Z,89.34
2023-01-18T01:04:10.569Z,89.24
2023-01-18T01:08:17.600Z,89.77
2023-01-18T01:12:38.243Z,89.09
2023-01-18T01:16:58.820Z,89.17
2023-01-18T01:21:23.282Z,88.28
2023-01-18T01:25:43.897Z,89.21
2023-01-18T01:29:46.045Z,89.11
2023-01-18T01:33:51.050Z,89.95
2023-01-18T01:37:53.158Z,90.54
2023-01-18T01:41:55.252Z,90.40
2023-01-18T01:45:57.455Z,91.05
2023-01-18T01:50:06.055Z,90.73
2023-01-18T01:54:14.079Z,90.13
2023-01-18T01:58:24.394Z,90.64
2023-01-18T02:02:27.607Z,90.00
2023-01-18T02:06:36.079Z,89.77
2023-01-18T02:10:38.562Z,90.07
2023-01-18T02:14:41.225Z,90.44
2023-01-18T02:18:59.428Z,91.26
2023-01-18T02:23:16.688Z,91.37
2023-01-18T02:27:18.633Z,90.20
2023-01-18T02:31:27.801Z,90.31
2023-01-18T02:35:44.925Z,90.13
2023-01-18T02:40:11.529Z,90.78
2023-01-18T02:44:36.714Z,90.44
2023-01-18T02:48:42.662Z,90.48
2023-01-18T02:52:53.610Z,90.89
2023-01-18T02:56:59.158Z,91.22
2023-01-18T03:01:17.901Z,91.27
2023-01-18T03:05:23.197Z,90.55
2023-01-18T03:09:27.371Z,89.90
2023-01-18T03:13:41.734Z,90.09
2023-01-18T03:17:51.295Z,89.83
2023-01-18T03:21:53.527Z,90.11
2023-01-18T03:25:57.555Z,89.83
2023-01-18T03:30:18.262Z,89.30
2023-01-18T03:34:35.719Z,89.26
2023-01-18T03:38:39.754Z,89.37
2023-01-18T03:42:56.612Z,88.32
2023-01-18T03:46:58.899Z,88.46
2023-01-18T03:51:32.724Z,88.64
2023-01-18T03:55:44.517Z,88.07
2023-01-18T03:59:47.500Z,87.53
2023-01-18T04:03:49.717Z,87.26
2023-01-18T04:07:52.039Z,86.50
2023-01-18T04:11:54.137Z,86.26
2023-01-18T04:15:56.306Z,86.43
2023-01-18T04:19:58.373Z,85.71
2023-01-18T04:24:00.701Z,86.32
2023-01-18T04:28:02.760Z,85.96
2023-01-18T04:32:05.592Z,85.41
2023-01-18T04:36:08.656Z,85.24
2023-01-18T04:40:11.582Z,85.37
2023-01-18T04:44:14.125Z,85.18
2023-01-18T04:48:16.187Z,85.76
2023-01-18T04:52:19.192Z,84.84
2023-01-18T04:56:21.448Z,85.62
2023-01-18T05:00:24.197Z,85.00
2023-01-18T05:04:26.371Z,84.40
2023-01-18T05:08:28.518Z,83.49
2023-01-18T05:12:30.850Z,82.20
2023-01-18T05:16:33.090Z,82.22
2023-01-18T05:20:35.208Z,81.91
2023-01-18T05:24:37.250Z,83.61
2023-01-18T05:28:39.766Z,82.94
2023-01-18T05:32:41.824Z,82.29
2023-01-18T05:36:43.899Z,82.09
2023-01-18T05:40:48.801Z,81.78
2023-01-18T05:44:50.856Z,80.92
2023-01-18T05:48:57.132Z,80.32
2023-01-18T05:53:00.342Z,79.82
2023-01-18T05:57:02.681Z,80.10
2023-01-18T06:01:05.137Z,79.89
2023-01-18T06:05:07.579Z,80.32
2023-01-18T06:09:09.704Z,79.34
2023-01-18T06:13:11.726Z,79.23
2023-01-18T06:17:13.933Z,79.71
2023-01-18T06:21:17.902Z,79.83
2023-01-18T06:25:20.246Z,79.76
2023-01-18T06:29:22.311Z,79.67
2023-01-18T06:33:24.816Z,79.86
2023-01-18T06:37:26.963Z,79.47
2023-01-18T06:41:29.308Z,84.52
2023-01-18T06:45:31.495Z,81.32
2023-01-18T06:49:33.607Z,80.76
2023-01-18T06:53:37.868Z,80.36
2023-01-18T06:57:40.622Z,80.23
2023-01-18T07:01:42.730Z,79.92
2023-01-18T07:05:46.470Z,80.48
2023-01-18T07:09:48.530Z,81.23
2023-01-18T07:13:50.997Z,80.76
2023-01-18T07:17:53.063Z,80.58
2023-01-18T07:21:55.121Z,88.83
2023-01-18T07:26:05.552Z,83.63
2023-01-18T07:30:08.255Z,79.80
2023-01-18T07:34:11.108Z,78.49
2023-01-18T07:38:13.174Z,78.44
2023-01-18T07:42:15.302Z,78.58
2023-01-18T07:46:20.710Z,78.99
2023-01-18T07:50:23.098Z,78.15
2023-01-18T07:54:26.155Z,78.11
2023-01-18T07:58:29.079Z,78.58
2023-01-18T08:02:31.278Z,78.11
2023-01-18T08:06:33.739Z,78.32
2023-01-18T08:10:36.542Z,78.29
2023-01-18T08:14:38.574Z,78.56
2023-01-18T08:18:40.673Z,79.70
2023-01-18T08:22:42.699Z,82.11
2023-01-18T08:26:44.838Z,80.67
2023-01-18T08:30:48.199Z,79.22
2023-01-18T08:34:50.603Z,79.45
2023-01-18T08:38:57.506Z,78.48
2023-01-18T08:43:01.609Z,78.06
2023-01-18T08:47:03.878Z,77.18
2023-01-18T08:51:06.040Z,77.09
2023-01-18T08:55:08.813Z,76.84
2023-01-18T08:59:10.916Z,76.48
2023-01-18T09:03:13.400Z,75.96
2023-01-18T09:07:16.515Z,74.99
2023-01-18T09:11:18.869Z,74.94
2023-01-18T09:15:21.454Z,73.78
2023-01-18T09:19:23.575Z,72.91
2023-01-18T09:23:26.021Z,72.08
2023-01-18T09:27:28.091Z,72.23
2023-01-18T09:31:30.737Z,71.25
2023-01-18T09:35:33.703Z,71.07
2023-01-18T09:39:50.813Z,70.84
2023-01-18T09:43:58.260Z,70.43
2023-01-18T09:48:05.004Z,70.10
2023-01-18T09:52:43.293Z,68.88
2023-01-18T09:57:03.254Z,67.34
2023-01-18T10:01:12.156Z,67.95
2023-01-18T10:05:21.482Z,67.88
2023-01-18T10:09:48.539Z,66.83
2023-01-18T10:14:29.067Z,66.53
2023-01-18T10:18:31.230Z,66.45
2023-01-18T10:22:44.024Z,65.76
2023-01-18T10:26:48.434Z,64.76
2023-01-18T10:31:15.433Z,64.64
2023-01-18T10:35:32.073Z,63.51
2023-01-18T10:39:50.837Z,63.84
2023-01-18T10:43:53.403Z,63.63
2023-01-18T10:47:57.998Z,63.11
2023-01-18T10:52:21.458Z,63.00
2023-01-18T10:56:25.874Z,61.49
2023-01-18T11:00:35.530Z,61.50
2023-01-18T11:04:40.388Z,60.69
2023-01-18T11:08:43.855Z,60.59
2023-01-18T11:12:48.067Z,61.36
2023-01-18T11:17:11.007Z,58.97
2023-01-18T11:21:15.261Z,60.08
2023-01-18T11:25:17.799Z,60.04
2023-01-18T11:29:23.010Z,60.00
2023-01-18T11:33:27.604Z,58.93
2023-01-18T11:37:37.438Z,60.21
2023-01-18T11:41:39.567Z,59.77
2023-01-18T11:45:50.787Z,58.91
2023-01-18T11:50:23.838Z,59.24
2023-01-18T11:54:34.586Z,59.49
2023-01-18T11:58:36.807Z,59.78
2023-01-18T12:03:00.389Z,60.42
2023-01-18T12:07:33.293Z,60.93
2023-01-18T12:12:29.464Z,60.58
2023-01-18T12:16:50.218Z,61.24
2023-01-18T12:21:10.587Z,62.28
2023-01-18T12:25:26.114Z,61.99
2023-01-18T12:30:07.335Z,62.61
2023-01-18T12:34:15.025Z,63.47
2023-01-18T12:38:31.416Z,63.66
2023-01-18T12:42:46.620Z,63.74
2023-01-18T12:47:17.327Z,63.65
2023-01-18T12:51:24.174Z,63.01
2023-01-18T12:55:31.565Z,63.19
2023-01-18T12:59:53.467Z,63.36
2023-01-18T13:04:01.862Z,63.97
2023-01-18T13:08:14.567Z,64.47
2023-01-18T13:12:17.398Z,64.74
2023-01-18T13:16:28.172Z,66.48
2023-01-18T13:20:54.092Z,66.82
2023-01-18T13:25:26.291Z,67.29
2023-01-18T13:29:30.088Z,67.37
2023-01-18T13:33:40.922Z,66.14
2023-01-18T13:37:49.188Z,66.29
2023-01-18T13:42:03.806Z,66.30
2023-01-18T13:46:05.849Z,67.70
2023-01-18T13:50:36.862Z,67.50
2023-01-18T13:54:38.939Z,67.62
2023-01-18T13:58:52.955Z,66.87
2023-01-18T14:03:04.628Z,66.44
2023-01-18T14:07:08.008Z,66.76
2023-01-18T14:11:24.261Z,66.50
2023-01-18T14:15:44.124Z,66.87
2023-01-18T14:19:49.214Z,67.64
2023-01-18T14:24:06.434Z,67.96
2023-01-18T14:28:17.087Z,69.37
2023-01-18T14:32:26.136Z,68.98
2023-01-18T14:36:28.870Z,69.08
2023-01-18T14:40:31.469Z,68.73
2023-01-18T14:44:57.382Z,69.28
2023-01-18T14:49:01.710Z,69.22
2023-01-18T14:53:04.724Z,69.56
2023-01-18T14:57:09.920Z,70.21
2023-01-18T15:01:33.787Z,70.48
2023-01-18T15:05:36.061Z,70.40
2023-01-18T15:09:40.723Z,70.39
2023-01-18T15:13:50.261Z,70.25
2023-01-18T15:17:54.545Z,69.94
2023-01-18T15:22:00.438Z,70.13
2023-01-18T15:26:02.850Z,70.21
2023-01-18T15:30:12.871Z,70.75
2023-01-18T15:34:16.821Z,70.29
2023-01-18T15:38:18.975Z,69.98
2023-01-18T15:42:21.196Z,70.07
2023-01-18T15:46:25.266Z,69.94
2023-01-18T15:50:36.191Z,70.01
2023-01-18T15:54:38.362Z,70.35
2023-01-18T15:58:55.603Z,70.43
2023-01-18T16:02:58.176Z,71.21
2023-01-18T16:07:41.905Z,71.32
2023-01-18T16:11:51.636Z,72.55
2023-01-18T16:16:16.970Z,72.73
2023-01-18T16:20:19.525Z,73.27
2023-01-18T16:24:53.915Z,73.52
2023-01-18T16:29:06.551Z,74.63
2023-01-18T16:33:19.175Z,74.28
2023-01-18T16:37:21.785Z,75.53
2023-01-18T16:41:23.880Z,76.21
2023-01-18T16:45:26.233Z,76.46
2023-01-18T16:49:28.454Z,76.90
2023-01-18T16:53:31.585Z,77.31
2023-01-18T16:57:33.752Z,78.05
2023-01-18T17:01:36.198Z,78.44
2023-01-18T17:05:38.433Z,78.90
2023-01-18T17:09:48.326Z,79.44
2023-01-18T17:13:50.895Z,80.02
2023-01-18T17:17:52.979Z,80.87
2023-01-18T17:21:55.154Z,80.41
2023-01-18T17:25:59.469Z,80.11
2023-01-18T17:30:02.119Z,80.89
2023-01-18T17:34:04.912Z,80.58
2023-01-18T17:38:11.935Z,80.88
2023-01-18T17:42:29.413Z,79.61
2023-01-18T17:46:33.651Z,80.37
2023-01-18T17:50:35.918Z,81.14
2023-01-18T17:54:38.019Z,80.46
2023-01-18T17:58:40.913Z,80.91
2023-01-18T18:02:43.575Z,81.62
2023-01-18T18:06:53.712Z,81.07
2023-01-18T18:10:56.293Z,81.44
2023-01-18T18:14:58.444Z,79.97
2023-01-18T18:19:00.788Z,80.51
2023-01-18T18:23:03.347Z,82.06
2023-01-18T18:27:06.107Z,81.92
2023-01-18T18:31:16.533Z,83.04
2023-01-18T18:35:25.437Z,83.43
2023-01-18T18:39:28.327Z,83.15
2023-01-18T18:43:30.538Z,82.92
2023-01-18T18:47:32.923Z,83.96
2023-01-18T18:51:38.575Z,83.08
2023-01-18T18:55:40.930Z,84.23
2023-01-18T18:59:43.013Z,83.74
2023-01-18T19:03:45.263Z,83.66
2023-01-18T19:07:51.173Z,84.20
2023-01-18T19:11:55.601Z,84.58
2023-01-18T19:16:01.044Z,84.28
2023-01-18T19:20:04.332Z,84.08
2023-01-18T19:24:07.060Z,84.71
2023-01-18T19:28:09.812Z,84.17
2023-01-18T19:32:12.125Z,84.34
2023-01-18T19:36:16.049Z,84.62
2023-01-18T19:40:18.485Z,85.07
2023-01-18T19:44:20.753Z,84.48
2023-01-18T19:48:22.831Z,84.65
2023-01-18T19:52:24.944Z,85.63
2023-01-18T19:56:28.997Z,85.90
2023-01-18T20:00:31.074Z,86.48
2023-01-18T20:04:33.901Z,86.74
2023-01-18T20:08:36.575Z,86.36
2023-01-18T20:12:39.262Z,86.08
2023-01-18T20:16:42.116Z,85.85
2023-01-18T20:20:45.278Z,86.53
2023-01-18T20:24:47.503Z,86.16
2023-01-18T20:28:52.549Z,85.66
2023-01-18T20:32:54.584Z,85.46
2023-01-18T20:36:56.751Z,85.59
2023-01-18T20:40:59.183Z,85.90
2023-01-18T20:45:01.495Z,86.12
2023-01-18T20:49:04.637Z,86.12
2023-01-18T20:53:07.383Z,86.42
2023-01-18T20:57:09.568Z,86.75
2023-01-18T21:01:18.273Z,86.42
2023-01-18T21:05:20.421Z,86.06
2023-01-18T21:09:23.576Z,86.89
2023-01-18T21:13:25.801Z,86.94
2023-01-18T21:17:28.015Z,86.89
2023-01-18T21:21:31.741Z,86.94
2023-01-18T21:25:33.979Z,86.53
2023-01-18T21:29:36.912Z,87.19
2023-01-18T21:33:39.036Z,87.28
2023-01-18T21:37:41.810Z,87.59
2023-01-18T21:42:04.072Z,87.55
2023-01-18T21:46:09.237Z,87.61
2023-01-18T21:50:30.037Z,88.69
2023-01-18T21:54:32.070Z,89.04
2023-01-18T21:58:52.805Z,88.98
2023-01-18T22:02:54.870Z,88.44
2023-01-18T22:07:00.351Z,88.56
2023-01-18T22:11:02.362Z,88.43
2023-01-18T22:15:05.251Z,87.61
2023-01-18T22:19:07.467Z,88.20
2023-01-18T22:23:09.788Z,87.71
2023-01-18T22:27:11.792Z,87.44
2023-01-18T22:31:14.771Z,87.18
2023-01-18T22:35:16.828Z,87.30
2023-01-18T22:39:18.875Z,87.03
2023-01-18T22:43:20.944Z,87.07
2023-01-18T22:47:23.001Z,87.24
2023-01-18T22:51:25.350Z,87.22
2023-01-18T22:55:27.383Z,88.43
2023-01-18T22:59:29.380Z,88.90
2023-01-18T23:03:31.431Z,89.07
2023-01-18T23:07:33.532Z,89.51
2023-01-18T23:11:35.700Z,89.70
2023-01-18T23:16:02.981Z,89.70
2023-01-18T23:20:06.804Z,89.46
2023-01-18T23:24:08.811Z,89.68
2023-01-18T23:28:10.880Z,89.87
2023-01-18T23:32:12.878Z,89.82
2023-01-18T23:36:14.907Z,90.32
2023-01-18T23:40:35.766Z,90.49
2023-01-18T23:44:56.196Z,90.65
2023-01-18T23:49:16.680Z,90.94
2023-01-18T23:53:37.310Z,93.35
2023-01-18T23:57:39.458Z,93.11
